Time;durP1;ratioP1;P1;durP2;ratioP2;P2;SDS_P1;SDS_P2;PMS_P1;PMS_P2;Temp;Humidity;BMP_temperature;BMP_pressure;BME280_temperature;BME280_humidity;BME280_pressure;Samples;Min_cycle;Max_cycle;Signal;HPM_P1;HPM_P2
2022/07/17 00:00:12;;;;;;;7.72;3.00;;;;;;;;;;5021588;28;20048;-78
2022/07/17 00:02:37;;;;;;;5.43;3.03;;;;;;;;;;5022287;28;20057;-79
2022/07/17 00:05:03;;;;;;;8.00;2.90;;;;;;;;;;5038894;28;20037;-78
2022/07/17 00:07:28;;;;;;;6.47;2.88;;;;;;;;;;5039042;28;20109;-79
2022/07/17 00:09:54;;;;;;;4.80;3.03;;;;;;;;;;5038531;28;20025;-78
2022/07/17 00:12:19;;;;;;;7.53;3.13;;;;;;;;;;5021633;28;20029;-80
2022/07/17 00:14:44;;;;;;;5.57;2.97;;;;;;;;;;5038892;28;20029;-79
2022/07/17 00:17:09;;;;;;;6.90;2.83;;;;;;;;;;5020556;28;20056;-80
2022/07/17 00:19:35;;;;;;;5.68;2.78;;;;;;;;;;5038518;28;20269;-79
2022/07/17 00:22:00;;;;;;;6.10;2.60;;;;;;;;;;5039092;28;20025;-78
2022/07/17 00:24:27;;;;;;;5.93;2.70;;;;;;;;;;5038078;28;20259;-78
2022/07/17 00:26:53;;;;;;;6.60;2.92;;;;;;;;;;5021615;28;20072;-78
2022/07/17 00:29:19;;;;;;;6.87;2.50;;;;;;;;;;5038533;28;20018;-77
2022/07/17 00:31:44;;;;;;;5.22;2.72;;;;;;;;;;5038459;28;20251;-79
2022/07/17 00:34:10;;;;;;;11.65;2.90;;;;;;;;;;5038548;28;20033;-78
2022/07/17 00:36:35;;;;;;;5.97;2.90;;;;;;;;;;5037699;28;20100;-79
2022/07/17 00:39:01;;;;;;;6.43;2.80;;;;;;;;;;5037734;28;20037;-78
2022/07/17 00:41:26;;;;;;;6.73;2.97;;;;;;;;;;5037933;28;20029;-78
2022/07/17 00:43:51;;;;;;;5.20;2.70;;;;;;;;;;5039075;28;20255;-79
2022/07/17 00:46:17;;;;;;;3.80;2.60;;;;;;;;;;5039140;28;20495;-79
2022/07/17 00:48:42;;;;;;;5.13;2.38;;;;;;;;;;5030696;28;20105;-78
2022/07/17 00:51:09;;;;;;;8.90;2.77;;;;;;;;;;5021073;28;20087;-80
2022/07/17 00:53:35;;;;;;;5.90;2.72;;;;;;;;;;5037923;28;20274;-78
2022/07/17 00:56:03;;;;;;;6.57;2.72;;;;;;;;;;5037716;28;20032;-78
2022/07/17 00:58:28;;;;;;;4.88;2.78;;;;;;;;;;5038029;28;20103;-78
2022/07/17 01:00:54;;;;;;;5.43;2.97;;;;;;;;;;5020886;28;20029;-79
2022/07/17 01:03:23;;;;;;;5.97;2.97;;;;;;;;;;5038435;28;20390;-78
2022/07/17 01:05:49;;;;;;;5.03;2.45;;;;;;;;;;5038917;28;20024;-78
2022/07/17 01:08:14;;;;;;;6.70;2.30;;;;;;;;;;5020803;28;20017;-79
2022/07/17 01:10:40;;;;;;;3.88;2.58;;;;;;;;;;5039205;28;20113;-79
2022/07/17 01:13:05;;;;;;;6.07;2.60;;;;;;;;;;5038646;28;20163;-78
2022/07/17 01:15:37;;;;;;;6.88;2.35;;;;;;;;;;5039386;28;20033;-78
2022/07/17 01:18:08;;;;;;;9.65;2.40;;;;;;;;;;5038299;28;20048;-78
2022/07/17 01:20:35;;;;;;;7.50;1.88;;;;;;;;;;5038180;28;20494;-78
2022/07/17 01:23:01;;;;;;;7.03;2.25;;;;;;;;;;5038648;28;20037;-80
2022/07/17 01:25:26;;;;;;;4.30;1.90;;;;;;;;;;5037799;28;20501;-78
2022/07/17 01:27:51;;;;;;;4.40;1.70;;;;;;;;;;5038263;28;20559;-79
2022/07/17 01:30:17;;;;;;;3.60;1.90;;;;;;;;;;5038048;28;20044;-78
2022/07/17 01:32:43;;;;;;;3.08;1.60;;;;;;;;;;5020261;28;20021;-78
2022/07/17 01:35:11;;;;;;;4.55;1.50;;;;;;;;;;5038342;28;20506;-78
2022/07/17 01:37:37;;;;;;;4.95;1.77;;;;;;;;;;5019670;28;20018;-79
2022/07/17 01:40:02;;;;;;;9.23;2.10;;;;;;;;;;5038014;28;20030;-78
2022/07/17 01:42:28;;;;;;;7.43;1.60;;;;;;;;;;5036263;28;20022;-79
2022/07/17 01:44:55;;;;;;;3.88;1.58;;;;;;;;;;5037896;28;20023;-80
2022/07/17 01:47:21;;;;;;;5.63;1.50;;;;;;;;;;5037065;28;20025;-78
2022/07/17 01:49:52;;;;;;;6.55;1.70;;;;;;;;;;5036742;28;20041;-78
2022/07/17 01:52:18;;;;;;;2.28;1.60;;;;;;;;;;5018496;28;20030;-79
2022/07/17 01:54:44;;;;;;;3.30;1.48;;;;;;;;;;5018895;28;20021;-78
2022/07/17 01:57:11;;;;;;;5.13;1.60;;;;;;;;;;5036679;28;20096;-78
2022/07/17 01:59:37;;;;;;;4.47;1.50;;;;;;;;;;5036377;28;20037;-78
2022/07/17 02:02:04;;;;;;;6.85;1.50;;;;;;;;;;5018773;28;20030;-79
2022/07/17 02:04:30;;;;;;;6.40;1.60;;;;;;;;;;5036750;28;20038;-80
2022/07/17 02:06:55;;;;;;;3.45;1.55;;;;;;;;;;5036153;28;20076;-78
2022/07/17 02:09:21;;;;;;;3.70;1.80;;;;;;;;;;5036849;28;20021;-80
2022/07/17 02:11:46;;;;;;;6.00;1.90;;;;;;;;;;5019533;28;20029;-78
2022/07/17 02:14:12;;;;;;;5.10;1.65;;;;;;;;;;5036662;28;20032;-79
2022/07/17 02:16:37;;;;;;;4.85;1.70;;;;;;;;;;5036067;28;20053;-80
2022/07/17 02:19:02;;;;;;;3.72;1.60;;;;;;;;;;5038419;28;20029;-79
2022/07/17 02:21:28;;;;;;;4.72;1.90;;;;;;;;;;5021989;28;20017;-79
2022/07/17 02:23:53;;;;;;;4.00;2.13;;;;;;;;;;5040071;28;20025;-79
2022/07/17 02:26:18;;;;;;;4.60;2.07;;;;;;;;;;5039233;28;20074;-80
2022/07/17 02:28:46;;;;;;;4.25;2.13;;;;;;;;;;5040261;28;20255;-79
2022/07/17 02:31:11;;;;;;;6.57;2.25;;;;;;;;;;5041940;28;20490;-79
2022/07/17 02:33:37;;;;;;;4.53;2.42;;;;;;;;;;5041809;28;20044;-77
2022/07/17 02:36:02;;;;;;;4.47;2.30;;;;;;;;;;5023267;28;20025;-79
2022/07/17 02:38:28;;;;;;;5.65;2.38;;;;;;;;;;5040877;28;20128;-79
2022/07/17 02:40:53;;;;;;;7.72;2.50;;;;;;;;;;5040318;28;20052;-80
2022/07/17 02:43:18;;;;;;;7.43;2.40;;;;;;;;;;5039735;28;20031;-79
2022/07/17 02:45:44;;;;;;;4.97;2.33;;;;;;;;;;5039716;28;20029;-79
2022/07/17 02:48:09;;;;;;;4.60;2.35;;;;;;;;;;5040787;28;20250;-79
2022/07/17 02:50:34;;;;;;;4.83;2.33;;;;;;;;;;5023215;28;20029;-79
2022/07/17 02:52:59;;;;;;;3.05;2.00;;;;;;;;;;5042279;28;20255;-78
2022/07/17 02:55:25;;;;;;;9.80;2.10;;;;;;;;;;5042280;28;20037;-79
2022/07/17 02:57:50;;;;;;;3.90;1.98;;;;;;;;;;5042176;28;20053;-79
2022/07/17 03:00:17;;;;;;;5.53;2.28;;;;;;;;;;5042610;28;20021;-80
2022/07/17 03:02:44;;;;;;;5.18;2.10;;;;;;;;;;5042207;28;20026;-80
2022/07/17 03:05:10;;;;;;;6.18;2.20;;;;;;;;;;5025025;28;20017;-78
2022/07/17 03:07:35;;;;;;;8.40;2.33;;;;;;;;;;5042191;28;20340;-79
2022/07/17 03:10:01;;;;;;;3.90;2.08;;;;;;;;;;5042102;28;20368;-78
2022/07/17 03:12:26;;;;;;;5.20;1.90;;;;;;;;;;5024192;28;20048;-79
2022/07/17 03:14:51;;;;;;;5.10;1.98;;;;;;;;;;5042249;28;20028;-79
2022/07/17 03:17:16;;;;;;;16.87;2.33;;;;;;;;;;5024656;28;20484;-78
2022/07/17 03:19:42;;;;;;;6.85;2.30;;;;;;;;;;5041546;28;20751;-78
2022/07/17 03:22:07;;;;;;;4.13;1.90;;;;;;;;;;5041627;28;20483;-79
2022/07/17 03:24:32;;;;;;;4.55;2.03;;;;;;;;;;5041640;28;20064;-79
2022/07/17 03:26:57;;;;;;;5.63;2.23;;;;;;;;;;5042247;28;20068;-80
2022/07/17 03:29:23;;;;;;;8.73;2.63;;;;;;;;;;5040817;28;20380;-78
2022/07/17 03:31:48;;;;;;;5.82;2.22;;;;;;;;;;5040881;28;20049;-79
2022/07/17 03:34:14;;;;;;;4.22;1.88;;;;;;;;;;5023989;28;20534;-78
2022/07/17 03:36:39;;;;;;;3.78;2.15;;;;;;;;;;5040728;28;20028;-79
2022/07/17 03:39:05;;;;;;;3.80;2.10;;;;;;;;;;5039245;28;20025;-78
2022/07/17 03:41:30;;;;;;;3.97;2.00;;;;;;;;;;5041155;28;20056;-79
2022/07/17 03:43:55;;;;;;;5.32;2.20;;;;;;;;;;5040981;28;20436;-78
2022/07/17 03:46:22;;;;;;;4.17;2.00;;;;;;;;;;5041201;28;20094;-78
2022/07/17 03:48:47;;;;;;;4.32;1.90;;;;;;;;;;5032247;28;20270;-79
2022/07/17 03:51:12;;;;;;;6.32;2.08;;;;;;;;;;5041561;28;20029;-78
2022/07/17 03:53:37;;;;;;;5.07;2.00;;;;;;;;;;5040820;28;20028;-80
2022/07/17 03:56:04;;;;;;;3.95;2.08;;;;;;;;;;5039169;28;20283;-79
2022/07/17 03:58:30;;;;;;;5.47;2.10;;;;;;;;;;5040784;28;20025;-78
2022/07/17 04:00:55;;;;;;;5.95;1.80;;;;;;;;;;5022795;28;20052;-78
2022/07/17 04:03:20;;;;;;;6.57;2.10;;;;;;;;;;5041285;28;20029;-79
2022/07/17 04:05:45;;;;;;;5.03;2.03;;;;;;;;;;5041071;28;20289;-78
2022/07/17 04:08:12;;;;;;;5.03;1.95;;;;;;;;;;5040556;28;20032;-79
2022/07/17 04:10:38;;;;;;;3.03;1.83;;;;;;;;;;5039933;28;20437;-79
2022/07/17 04:13:03;;;;;;;5.53;2.00;;;;;;;;;;5039920;28;20026;-78
2022/07/17 04:18:12;;;;;;;5.18;1.90;;;;;;;;;;5040137;28;20878;-78
2022/07/17 04:20:37;;;;;;;9.18;1.88;;;;;;;;;;5039601;28;20056;-79
2022/07/17 04:23:04;;;;;;;5.03;1.67;;;;;;;;;;5039661;28;20043;-79
2022/07/17 04:25:30;;;;;;;8.68;2.15;;;;;;;;;;5039020;28;20451;-79
2022/07/17 04:27:55;;;;;;;2.47;1.50;;;;;;;;;;5038444;28;20049;-80
2022/07/17 04:30:20;;;;;;;3.30;1.50;;;;;;;;;;5036633;28;20270;-79
2022/07/17 04:32:45;;;;;;;2.50;1.65;;;;;;;;;;5038042;28;20262;-79
2022/07/17 04:35:11;;;;;;;6.03;1.60;;;;;;;;;;5021367;28;20021;-79
2022/07/17 04:37:36;;;;;;;5.87;1.53;;;;;;;;;;5020988;28;20025;-79
2022/07/17 04:40:01;;;;;;;3.93;1.80;;;;;;;;;;5038636;28;20273;-78
2022/07/17 04:42:26;;;;;;;4.50;1.70;;;;;;;;;;5037894;28;20262;-79
2022/07/17 04:44:52;;;;;;;2.67;1.37;;;;;;;;;;5020446;28;20017;-79
2022/07/17 04:47:17;;;;;;;5.73;1.70;;;;;;;;;;5038298;28;20678;-80
2022/07/17 04:49:42;;;;;;;7.72;1.80;;;;;;;;;;5038695;28;20662;-79
2022/07/17 04:52:07;;;;;;;4.83;1.70;;;;;;;;;;5037966;28;20037;-78
2022/07/17 04:54:32;;;;;;;6.38;1.80;;;;;;;;;;5041066;28;20258;-79
2022/07/17 04:56:58;;;;;;;4.13;1.70;;;;;;;;;;5040121;28;20032;-80
2022/07/17 04:59:23;;;;;;;4.90;1.50;;;;;;;;;;5040124;28;20104;-80
2022/07/17 05:01:48;;;;;;;7.18;2.92;;;;;;;;;;5041303;28;20265;-81
2022/07/17 05:04:13;;;;;;;4.28;1.92;;;;;;;;;;5040536;28;20049;-78
2022/07/17 05:06:39;;;;;;;4.10;1.92;;;;;;;;;;5040812;28;20030;-79
2022/07/17 05:09:04;;;;;;;6.27;1.40;;;;;;;;;;5040404;28;20073;-79
2022/07/17 05:11:29;;;;;;;6.72;1.40;;;;;;;;;;5040338;28;20291;-80
2022/07/17 05:13:54;;;;;;;4.07;1.50;;;;;;;;;;5040356;28;20025;-79
2022/07/17 05:16:20;;;;;;;5.68;1.33;;;;;;;;;;5040636;28;20372;-80
2022/07/17 05:18:45;;;;;;;3.70;1.23;;;;;;;;;;5040335;28;20022;-80
2022/07/17 05:21:10;;;;;;;4.47;1.40;;;;;;;;;;5041352;28;20025;-80
2022/07/17 05:23:36;;;;;;;4.63;1.40;;;;;;;;;;5040710;28;20495;-80
2022/07/17 05:26:01;;;;;;;5.20;1.50;;;;;;;;;;5041063;28;20021;-79
2022/07/17 05:28:27;;;;;;;4.00;1.55;;;;;;;;;;5040428;28;20435;-78
2022/07/17 05:30:52;;;;;;;5.03;1.40;;;;;;;;;;5040871;28;20052;-79
2022/07/17 05:33:17;;;;;;;9.00;1.40;;;;;;;;;;5040792;28;20037;-81
2022/07/17 05:35:42;;;;;;;3.45;1.20;;;;;;;;;;5042124;28;20254;-81
2022/07/17 05:38:10;;;;;;;4.20;1.37;;;;;;;;;;5040943;28;20164;-79
2022/07/17 05:40:35;;;;;;;4.32;1.27;;;;;;;;;;5039967;28;20247;-80
2022/07/17 05:43:00;;;;;;;4.60;1.40;;;;;;;;;;5039540;28;20064;-79
2022/07/17 05:45:26;;;;;;;3.60;1.10;;;;;;;;;;5039349;28;20033;-79
2022/07/17 05:47:51;;;;;;;9.70;1.43;;;;;;;;;;5038257;28;20259;-80
2022/07/17 05:50:16;;;;;;;4.47;1.17;;;;;;;;;;5021864;28;20286;-80
2022/07/17 05:52:41;;;;;;;4.65;1.23;;;;;;;;;;5040175;28;20254;-79
2022/07/17 05:55:07;;;;;;;3.80;1.27;;;;;;;;;;5042025;28;20022;-80
2022/07/17 05:57:33;;;;;;;5.40;1.35;;;;;;;;;;5044304;28;20285;-79
2022/07/17 05:59:58;;;;;;;8.25;1.55;;;;;;;;;;5043525;28;20028;-80
2022/07/17 06:02:23;;;;;;;3.47;1.83;;;;;;;;;;5044775;28;20029;-80
2022/07/17 06:04:48;;;;;;;3.45;1.40;;;;;;;;;;5044542;28;20267;-79
2022/07/17 06:07:14;;;;;;;4.17;1.10;;;;;;;;;;5043636;28;20087;-79
2022/07/17 06:09:39;;;;;;;3.72;1.27;;;;;;;;;;5042502;28;20266;-80
2022/07/17 06:12:04;;;;;;;5.43;1.40;;;;;;;;;;5044527;28;20029;-79
2022/07/17 06:14:30;;;;;;;2.85;1.40;;;;;;;;;;5043489;28;20786;-79
2022/07/17 06:16:55;;;;;;;6.15;1.52;;;;;;;;;;5044593;28;20025;-81
2022/07/17 06:19:20;;;;;;;4.82;1.20;;;;;;;;;;5045176;28;20027;-80
2022/07/17 06:21:46;;;;;;;6.72;1.30;;;;;;;;;;5045114;28;20025;-80
2022/07/17 06:24:11;;;;;;;5.75;1.23;;;;;;;;;;5046995;28;20414;-79
2022/07/17 06:26:36;;;;;;;4.70;1.47;;;;;;;;;;5044209;28;20482;-79
2022/07/17 06:29:01;;;;;;;4.10;1.33;;;;;;;;;;5043913;28;20642;-79
2022/07/17 06:31:27;;;;;;;5.72;1.30;;;;;;;;;;5044132;28;20597;-78
2022/07/17 06:33:52;;;;;;;5.65;1.20;;;;;;;;;;5044725;28;20056;-79
2022/07/17 06:36:17;;;;;;;3.13;1.17;;;;;;;;;;5043675;28;20383;-78
2022/07/17 06:38:42;;;;;;;7.60;1.10;;;;;;;;;;5043621;28;20044;-79
2022/07/17 06:41:08;;;;;;;5.37;1.00;;;;;;;;;;5043968;28;20474;-81
2022/07/17 06:43:33;;;;;;;4.60;1.20;;;;;;;;;;5027016;28;20328;-80
2022/07/17 06:45:58;;;;;;;5.43;1.30;;;;;;;;;;5045458;28;20108;-78
2022/07/17 06:48:23;;;;;;;5.85;1.30;;;;;;;;;;5039370;28;20096;-78
2022/07/17 06:50:49;;;;;;;4.05;1.08;;;;;;;;;;5039952;28;20030;-80
2022/07/17 06:53:14;;;;;;;4.82;1.02;;;;;;;;;;5044250;28;20440;-79
2022/07/17 06:55:40;;;;;;;7.28;1.20;;;;;;;;;;5045176;28;20054;-78
2022/07/17 06:58:05;;;;;;;7.60;0.93;;;;;;;;;;5045542;28;20112;-81
2022/07/17 07:00:31;;;;;;;3.70;1.02;;;;;;;;;;5045345;28;20087;-79
2022/07/17 07:02:56;;;;;;;9.45;1.20;;;;;;;;;;5045298;28;20032;-79
2022/07/17 07:05:22;;;;;;;3.75;0.88;;;;;;;;;;5044603;28;20104;-81
2022/07/17 07:07:47;;;;;;;4.97;0.95;;;;;;;;;;5044639;28;20116;-81
2022/07/17 07:10:12;;;;;;;4.38;1.20;;;;;;;;;;5044640;28;20025;-80
2022/07/17 07:12:38;;;;;;;5.45;1.13;;;;;;;;;;5044142;28;20029;-80
2022/07/17 07:15:04;;;;;;;3.20;0.97;;;;;;;;;;5042794;28;20017;-79
2022/07/17 07:17:31;;;;;;;2.33;1.02;;;;;;;;;;5042904;28;20250;-80
2022/07/17 07:19:57;;;;;;;4.82;1.13;;;;;;;;;;5043564;28;20017;-79
2022/07/17 07:22:22;;;;;;;3.17;0.80;;;;;;;;;;5044241;28;20101;-81
2022/07/17 07:24:47;;;;;;;4.70;1.00;;;;;;;;;;5043523;28;20108;-79
2022/07/17 07:27:12;;;;;;;6.30;1.13;;;;;;;;;;5043363;28;20269;-80
2022/07/17 07:29:37;;;;;;;5.30;0.93;;;;;;;;;;5043565;28;20262;-80
2022/07/17 07:32:03;;;;;;;2.80;0.93;;;;;;;;;;5043213;28;20326;-79
2022/07/17 07:34:29;;;;;;;4.50;1.02;;;;;;;;;;5026743;28;20258;-79
2022/07/17 07:36:54;;;;;;;4.93;1.00;;;;;;;;;;5043962;28;20021;-80
2022/07/17 07:39:19;;;;;;;3.30;1.00;;;;;;;;;;5043747;28;20071;-79
2022/07/17 07:41:44;;;;;;;4.00;0.90;;;;;;;;;;5044613;28;20474;-81
2022/07/17 07:44:10;;;;;;;3.13;1.20;;;;;;;;;;5043649;28;20281;-80
2022/07/17 07:46:35;;;;;;;4.53;1.07;;;;;;;;;;5026010;28;20482;-80
2022/07/17 07:49:00;;;;;;;3.80;1.10;;;;;;;;;;5044162;28;20262;-79
2022/07/17 07:51:29;;;;;;;3.77;1.40;;;;;;;;;;5024937;28;20258;-79
2022/07/17 07:53:54;;;;;;;3.95;1.00;;;;;;;;;;5044467;28;20262;-79
2022/07/17 07:56:19;;;;;;;6.68;0.75;;;;;;;;;;5024874;28;20017;-80
2022/07/17 07:58:45;;;;;;;5.03;0.93;;;;;;;;;;5043601;28;20064;-79
2022/07/17 08:01:10;;;;;;;3.22;1.00;;;;;;;;;;5043316;28;20259;-80
2022/07/17 08:03:35;;;;;;;3.67;0.93;;;;;;;;;;5023930;28;20048;-80
2022/07/17 08:06:00;;;;;;;4.50;0.93;;;;;;;;;;5042252;28;20029;-79
2022/07/17 08:08:26;;;;;;;2.70;0.90;;;;;;;;;;5043037;28;20030;-81
2022/07/17 08:10:51;;;;;;;3.60;0.90;;;;;;;;;;5043358;28;20263;-79
2022/07/17 08:13:17;;;;;;;6.15;1.00;;;;;;;;;;5042799;28;20033;-80
2022/07/17 08:15:42;;;;;;;2.55;0.90;;;;;;;;;;5023440;28;20061;-80
2022/07/17 08:18:07;;;;;;;3.70;1.20;;;;;;;;;;5040595;28;20025;-81
2022/07/17 08:20:32;;;;;;;3.43;1.10;;;;;;;;;;5041242;28;20269;-80
2022/07/17 08:22:58;;;;;;;3.70;0.90;;;;;;;;;;5042309;28;20265;-80
2022/07/17 08:25:23;;;;;;;6.80;1.20;;;;;;;;;;5022550;28;20025;-80
2022/07/17 08:27:48;;;;;;;4.82;1.20;;;;;;;;;;5041031;28;20028;-79
2022/07/17 08:30:14;;;;;;;3.67;0.95;;;;;;;;;;5040873;28;20101;-80
2022/07/17 08:32:41;;;;;;;4.70;1.30;;;;;;;;;;5043010;28;20029;-81
2022/07/17 08:35:07;;;;;;;3.75;1.05;;;;;;;;;;5017210;28;20398;-80
2022/07/17 08:37:51;;;;;;;3.80;0.88;;;;;;;;;;5042989;28;20029;-80
2022/07/17 08:40:25;;;;;;;7.65;1.10;;;;;;;;;;5026671;28;20030;-79
2022/07/17 08:42:51;;;;;;;5.70;1.25;;;;;;;;;;5045465;28;20029;-80
2022/07/17 08:45:17;;;;;;;4.80;1.00;;;;;;;;;;5043678;28;20083;-80
2022/07/17 08:47:43;;;;;;;3.78;0.95;;;;;;;;;;5024832;28;20022;-79
2022/07/17 08:50:10;;;;;;;5.03;1.00;;;;;;;;;;5043091;28;20116;-79
2022/07/17 08:52:37;;;;;;;3.55;1.02;;;;;;;;;;5025700;28;20052;-79
2022/07/17 08:55:03;;;;;;;2.78;0.80;;;;;;;;;;5041085;28;20029;-81
2022/07/17 08:57:28;;;;;;;3.25;1.00;;;;;;;;;;5043900;28;20021;-79
2022/07/17 08:59:53;;;;;;;3.60;0.93;;;;;;;;;;5025118;28;20041;-80
2022/07/17 09:02:19;;;;;;;5.33;1.17;;;;;;;;;;5042085;28;20025;-80
2022/07/17 09:04:55;;;;;;;4.03;0.93;;;;;;;;;;5042383;28;20273;-81
2022/07/17 09:07:21;;;;;;;5.25;1.15;;;;;;;;;;5041145;28;20778;-81
2022/07/17 09:09:51;;;;;;;6.35;1.20;;;;;;;;;;5040946;28;20041;-80
2022/07/17 09:12:16;;;;;;;6.75;0.95;;;;;;;;;;5024781;28;20025;-81
2022/07/17 09:14:41;;;;;;;3.03;0.70;;;;;;;;;;5040987;28;20133;-80
2022/07/17 09:17:09;;;;;;;4.38;0.90;;;;;;;;;;5024632;28;20025;-80
2022/07/17 09:19:45;;;;;;;6.88;1.20;;;;;;;;;;5042747;28;20045;-80
2022/07/17 09:22:13;;;;;;;8.05;1.52;;;;;;;;;;5043547;28;20025;-81
2022/07/17 09:24:42;;;;;;;7.30;0.95;;;;;;;;;;5041313;28;20026;-81
2022/07/17 09:27:09;;;;;;;1.77;0.80;;;;;;;;;;5036018;28;20056;-80
2022/07/17 09:29:48;;;;;;;3.65;1.08;;;;;;;;;;5030074;28;20025;-80
2022/07/17 09:32:19;;;;;;;7.13;1.30;;;;;;;;;;5040621;28;20021;-81
2022/07/17 09:34:49;;;;;;;5.03;1.15;;;;;;;;;;5047561;28;20033;-81
2022/07/17 09:37:15;;;;;;;7.38;1.00;;;;;;;;;;5030304;28;20033;-79
2022/07/17 09:39:41;;;;;;;4.63;1.10;;;;;;;;;;5027576;28;20068;-79
2022/07/17 09:42:06;;;;;;;3.88;0.90;;;;;;;;;;5038891;28;20021;-80
2022/07/17 09:44:32;;;;;;;2.63;1.10;;;;;;;;;;5026703;28;20091;-80
2022/07/17 09:46:58;;;;;;;3.75;1.10;;;;;;;;;;5047022;28;20266;-79
2022/07/17 09:49:27;;;;;;;5.50;1.15;;;;;;;;;;5025875;28;20103;-80
2022/07/17 09:51:53;;;;;;;7.35;1.15;;;;;;;;;;5031955;28;20079;-79
2022/07/17 09:54:21;;;;;;;5.18;1.00;;;;;;;;;;5030354;28;20021;-79
2022/07/17 09:56:51;;;;;;;2.70;0.88;;;;;;;;;;5051375;28;20054;-78
2022/07/17 09:59:18;;;;;;;4.30;1.00;;;;;;;;;;5036245;28;20022;-79
2022/07/17 10:01:48;;;;;;;2.35;1.23;;;;;;;;;;5054356;28;20138;-80
2022/07/17 10:04:15;;;;;;;4.68;1.20;;;;;;;;;;5038371;28;20056;-78
2022/07/17 10:06:41;;;;;;;2.08;0.68;;;;;;;;;;5055887;28;20026;-78
2022/07/17 10:09:09;;;;;;;5.93;1.00;;;;;;;;;;5055805;28;20024;-81
2022/07/17 10:11:37;;;;;;;5.80;1.05;;;;;;;;;;5053172;28;20024;-79
2022/07/17 10:14:10;;;;;;;2.15;0.90;;;;;;;;;;5051501;28;20025;-78
2022/07/17 10:16:39;;;;;;;6.07;1.08;;;;;;;;;;5050867;28;20025;-78
2022/07/17 10:19:19;;;;;;;5.28;0.98;;;;;;;;;;5051675;28;20030;-79
2022/07/17 10:22:05;;;;;;;3.20;0.95;;;;;;;;;;5051791;28;20021;-79
2022/07/17 10:24:31;;;;;;;5.78;1.10;;;;;;;;;;5049645;28;20029;-78
2022/07/17 10:26:58;;;;;;;3.25;1.10;;;;;;;;;;5048584;28;20041;-79
2022/07/17 10:29:36;;;;;;;2.40;1.05;;;;;;;;;;5049678;28;20025;-80
2022/07/17 10:32:14;;;;;;;3.55;0.80;;;;;;;;;;5049452;28;20025;-78
2022/07/17 10:34:48;;;;;;;3.72;0.80;;;;;;;;;;5048568;28;20033;-78
2022/07/17 10:37:20;;;;;;;;;;;;;;;;;;5048473;28;20019;-78
2022/07/17 10:39:55;;;;;;;2.83;0.95;;;;;;;;;;5050978;28;19913;-77
2022/07/17 10:42:46;;;;;;;3.65;0.90;;;;;;;;;;5052520;28;20021;-78
2022/07/17 10:45:17;;;;;;;3.83;0.90;;;;;;;;;;5045446;28;20036;-80
2022/07/17 10:47:49;;;;;;;2.58;1.00;;;;;;;;;;5041068;28;20022;-79
2022/07/17 10:50:16;;;;;;;3.80;1.00;;;;;;;;;;5042708;28;20421;-78
2022/07/17 10:52:41;;;;;;;6.18;1.50;;;;;;;;;;5040505;28;20031;-81
2022/07/17 10:55:22;;;;;;;3.50;0.93;;;;;;;;;;5039914;28;20120;-78
2022/07/17 10:57:48;;;;;;;4.28;1.05;;;;;;;;;;5040329;28;20030;-80
2022/07/17 11:00:15;;;;;;;4.03;1.02;;;;;;;;;;5021655;28;20478;-77
2022/07/17 11:02:40;;;;;;;4.03;0.90;;;;;;;;;;5022592;28;20033;-81
2022/07/17 11:05:10;;;;;;;2.47;0.90;;;;;;;;;;5022113;28;20076;-79
2022/07/17 11:07:35;;;;;;;3.55;0.88;;;;;;;;;;5039560;28;20386;-79
2022/07/17 11:10:12;;;;;;;2.15;0.75;;;;;;;;;;5039089;28;20029;-78
2022/07/17 11:12:40;;;;;;;3.10;0.93;;;;;;;;;;5039585;28;20025;-77
2022/07/17 11:15:06;;;;;;;4.88;1.10;;;;;;;;;;5022813;28;20037;-79
2022/07/17 11:17:31;;;;;;;5.97;1.00;;;;;;;;;;5040238;28;20033;-78
2022/07/17 11:19:59;;;;;;;3.00;1.10;;;;;;;;;;5038046;28;20076;-79
2022/07/17 11:22:26;;;;;;;5.95;1.00;;;;;;;;;;5039474;28;20030;-80
2022/07/17 11:24:52;;;;;;;4.30;1.13;;;;;;;;;;5042275;28;20483;-79
2022/07/17 11:27:20;;;;;;;2.92;1.00;;;;;;;;;;5040684;28;20037;-78
2022/07/17 11:29:47;;;;;;;4.78;1.00;;;;;;;;;;5023464;28;20489;-79
2022/07/17 11:32:15;;;;;;;2.00;0.95;;;;;;;;;;5019961;28;20040;-78
2022/07/17 11:34:43;;;;;;;1.90;1.02;;;;;;;;;;5038315;28;20055;-78
2022/07/17 11:37:09;;;;;;;2.15;0.80;;;;;;;;;;5022761;28;20033;-78
2022/07/17 11:39:43;;;;;;;3.13;0.95;;;;;;;;;;5039211;28;20478;-79
2022/07/17 11:42:10;;;;;;;7.18;1.42;;;;;;;;;;5022392;28;20110;-79
2022/07/17 11:44:36;;;;;;;6.32;1.05;;;;;;;;;;5039058;28;20125;-78
2022/07/17 11:47:02;;;;;;;3.45;1.10;;;;;;;;;;5039111;28;20057;-79
2022/07/17 11:49:29;;;;;;;3.22;0.90;;;;;;;;;;5039970;28;20029;-79
2022/07/17 11:51:57;;;;;;;5.35;1.08;;;;;;;;;;5020340;28;20026;-78
2022/07/17 11:54:23;;;;;;;3.38;1.10;;;;;;;;;;5040922;28;20447;-79
2022/07/17 11:56:57;;;;;;;3.88;1.10;;;;;;;;;;5040176;28;20029;-78
2022/07/17 11:59:30;;;;;;;3.05;1.00;;;;;;;;;;5019481;28;20026;-79
2022/07/17 12:01:56;;;;;;;3.67;1.00;;;;;;;;;;5037543;28;20470;-77
2022/07/17 12:04:22;;;;;;;5.43;1.00;;;;;;;;;;5018515;28;20044;-79
2022/07/17 12:07:00;;;;;;;3.72;1.00;;;;;;;;;;5038072;28;20053;-76
2022/07/17 12:09:27;;;;;;;6.25;1.05;;;;;;;;;;5039335;28;20100;-78
2022/07/17 12:11:52;;;;;;;7.50;1.10;;;;;;;;;;5038692;28;20370;-78
2022/07/17 12:14:17;;;;;;;4.82;1.00;;;;;;;;;;5036340;28;20021;-79
2022/07/17 12:16:44;;;;;;;4.72;1.00;;;;;;;;;;5036988;28;20459;-77
2022/07/17 12:19:18;;;;;;;4.40;1.10;;;;;;;;;;5020753;28;20021;-79
2022/07/17 12:21:53;;;;;;;2.80;1.02;;;;;;;;;;5036564;28;20049;-77
2022/07/17 12:24:21;;;;;;;5.50;0.90;;;;;;;;;;5018542;28;20029;-78
2022/07/17 12:26:47;;;;;;;5.80;1.10;;;;;;;;;;5036822;28;20463;-79
2022/07/17 12:29:12;;;;;;;2.30;0.90;;;;;;;;;;5034624;28;20088;-78
2022/07/17 12:31:38;;;;;;;1.70;0.80;;;;;;;;;;5035239;28;20449;-78
2022/07/17 12:34:03;;;;;;;3.10;0.88;;;;;;;;;;5037772;28;20021;-78
2022/07/17 12:36:28;;;;;;;4.50;1.00;;;;;;;;;;5036818;28;20525;-79
2022/07/17 12:38:57;;;;;;;3.67;1.20;;;;;;;;;;5037550;28;20752;-79
2022/07/17 12:41:22;;;;;;;6.47;1.15;;;;;;;;;;5038173;28;20254;-79
2022/07/17 12:43:47;;;;;;;3.83;0.90;;;;;;;;;;5037537;28;20108;-79
2022/07/17 12:46:16;;;;;;;5.80;1.00;;;;;;;;;;5021258;28;20270;-78
2022/07/17 12:48:48;;;;;;;5.13;1.30;;;;;;;;;;5029665;28;20657;-80
2022/07/17 12:51:13;;;;;;;3.05;1.02;;;;;;;;;;5038601;28;20033;-79
2022/07/17 12:53:43;;;;;;;3.60;0.98;;;;;;;;;;5039100;28;20095;-78
2022/07/17 12:56:09;;;;;;;3.40;0.80;;;;;;;;;;5039248;28;20080;-79
2022/07/17 12:58:35;;;;;;;2.03;0.90;;;;;;;;;;5038062;28;20064;-77
2022/07/17 13:01:00;;;;;;;3.55;0.98;;;;;;;;;;5038975;28;20033;-77
2022/07/17 13:03:26;;;;;;;3.03;1.00;;;;;;;;;;5047591;28;20081;-79
2022/07/17 13:05:51;;;;;;;2.65;0.70;;;;;;;;;;5052848;28;20036;-79
2022/07/17 13:08:16;;;;;;;3.17;0.90;;;;;;;;;;5050445;28;20029;-78
2022/07/17 13:10:42;;;;;;;1.98;0.85;;;;;;;;;;5050675;28;20029;-78
2022/07/17 13:13:07;;;;;;;1.30;0.70;;;;;;;;;;5039438;28;20022;-78
2022/07/17 13:15:33;;;;;;;3.03;0.90;;;;;;;;;;5035961;28;20270;-77
2022/07/17 13:18:00;;;;;;;4.07;1.08;;;;;;;;;;5034974;28;20089;-78
2022/07/17 13:20:25;;;;;;;4.88;1.00;;;;;;;;;;5018620;28;20026;-78
2022/07/17 13:22:51;;;;;;;5.22;0.80;;;;;;;;;;5035804;28;20485;-77
2022/07/17 13:25:16;;;;;;;2.42;0.77;;;;;;;;;;5017860;28;20052;-76
2022/07/17 13:27:42;;;;;;;2.85;0.90;;;;;;;;;;5037461;28;20040;-77
2022/07/17 13:30:08;;;;;;;2.42;1.00;;;;;;;;;;5037668;28;20061;-77
2022/07/17 13:32:33;;;;;;;4.50;0.95;;;;;;;;;;5038613;28;20036;-78
2022/07/17 13:34:58;;;;;;;2.13;1.00;;;;;;;;;;5037533;28;20054;-77
2022/07/17 13:37:23;;;;;;;2.87;0.73;;;;;;;;;;5037724;28;20344;-76
2022/07/17 13:39:49;;;;;;;2.40;0.90;;;;;;;;;;5020275;28;20283;-78
2022/07/17 13:42:15;;;;;;;2.87;0.97;;;;;;;;;;5038833;28;20255;-78
2022/07/17 13:44:41;;;;;;;2.95;1.00;;;;;;;;;;5019459;28;20270;-79
2022/07/17 13:47:06;;;;;;;2.60;0.80;;;;;;;;;;5037684;28;20033;-77
2022/07/17 13:49:31;;;;;;;3.03;0.80;;;;;;;;;;5036339;28;20353;-79
2022/07/17 13:51:56;;;;;;;3.67;1.00;;;;;;;;;;5034947;28;20026;-78
2022/07/17 13:54:22;;;;;;;3.80;1.67;;;;;;;;;;5035057;28;20434;-78
2022/07/17 13:56:47;;;;;;;5.72;1.10;;;;;;;;;;5028692;28;20292;-78
2022/07/17 13:59:12;;;;;;;2.92;0.77;;;;;;;;;;5036501;28;20033;-78
2022/07/17 14:01:38;;;;;;;2.60;0.80;;;;;;;;;;5035863;28;20453;-79
2022/07/17 14:04:03;;;;;;;3.63;1.00;;;;;;;;;;5036751;28;20670;-78
2022/07/17 14:06:29;;;;;;;2.95;1.20;;;;;;;;;;5017668;28;20108;-79
2022/07/17 14:08:54;;;;;;;4.47;0.95;;;;;;;;;;5033459;28;20049;-79
2022/07/17 14:11:19;;;;;;;3.22;0.90;;;;;;;;;;5035840;28;20060;-78
2022/07/17 14:13:45;;;;;;;4.35;0.80;;;;;;;;;;5035383;28;20097;-79
2022/07/17 14:16:10;;;;;;;1.67;0.70;;;;;;;;;;5038627;28;20061;-79
2022/07/17 14:18:35;;;;;;;6.40;0.88;;;;;;;;;;5023263;28;20274;-77
2022/07/17 14:21:01;;;;;;;4.28;0.90;;;;;;;;;;5037416;28;20123;-78
2022/07/17 14:23:26;;;;;;;1.83;0.88;;;;;;;;;;5038631;28;20025;-79
2022/07/17 14:25:52;;;;;;;3.05;0.80;;;;;;;;;;5038124;28;20021;-77
2022/07/17 14:28:17;;;;;;;2.17;0.70;;;;;;;;;;5040060;28;20036;-77
2022/07/17 14:30:42;;;;;;;6.38;1.02;;;;;;;;;;5040163;28;20037;-80
2022/07/17 14:33:08;;;;;;;6.05;1.10;;;;;;;;;;5038376;28;20025;-78
2022/07/17 14:35:34;;;;;;;5.82;1.10;;;;;;;;;;5037752;28;20475;-77
2022/07/17 14:37:59;;;;;;;2.80;1.00;;;;;;;;;;5038209;28;20026;-79
2022/07/17 14:40:25;;;;;;;2.22;0.75;;;;;;;;;;5038101;28;20049;-77